Terminal Aerodrome Forecast
Issued by NWS

Home | Current Version | Previous Version | Text Only | Print | Product List | Glossary On
Versions: 1 2 3 4 5 6 7 8 9 10 11 12 13 14 15 16 17 18 19
229
FTUS42 KTBW 191722
TAFLAL
TAF
KLAL 191722Z 1918/2018 29008KT P6SM SCT025 BKN050
      TEMPO 1918/1920 BKN025
     FM192000 32008KT P6SM SCT030 SCT250
     FM200200 VRB03KT P6SM SKC
     FM200700 VRB03KT 4SM BR SCT005=

USA.gov is the U.S. government's official web portal to all federal, state and local government web resources and services.